createdAt,value
2018-03-11T00:04:13.864Z,7.60
2018-03-11T00:12:07.197Z,7.62
2018-03-11T00:17:05.199Z,7.97
2018-03-11T00:22:03.194Z,7.10
2018-03-11T00:30:28.412Z,7.28
2018-03-11T00:35:25.897Z,7.00
2018-03-11T00:39:41.889Z,6.57
2018-03-11T00:42:10.893Z,7.07
2018-03-11T00:47:08.709Z,6.97
2018-03-11T00:52:06.472Z,6.40
2018-03-11T00:57:03.757Z,6.82
2018-03-11T00:59:32.775Z,6.80
2018-03-11T01:04:30.810Z,7.15
2018-03-11T01:09:28.753Z,6.43
2018-03-11T01:16:54.793Z,6.32
2018-03-11T01:21:52.185Z,6.18
2018-03-11T01:32:09.888Z,6.65
2018-03-11T01:34:38.782Z,6.37
2018-03-11T01:44:14.243Z,6.18
2018-03-11T01:51:41.491Z,6.60
2018-03-11T01:56:40.639Z,5.60
2018-03-11T02:01:38.363Z,6.18
2018-03-11T02:09:05.252Z,5.65
2018-03-11T02:14:03.329Z,5.40
2018-03-11T02:19:01.239Z,5.00
2018-03-11T02:21:30.659Z,5.80
2018-03-11T02:26:29.450Z,4.80
2018-03-11T02:31:27.418Z,5.65
2018-03-11T02:36:25.234Z,5.20
2018-03-11T02:38:55.175Z,5.03
2018-03-11T02:43:53.610Z,5.47
2018-03-11T02:48:51.204Z,4.78
2018-03-11T02:53:49.409Z,4.90
2018-03-11T02:56:19.416Z,5.32
2018-03-11T03:01:17.078Z,5.28
2018-03-11T03:06:44.212Z,5.10
2018-03-11T03:09:13.729Z,8.48
2018-03-11T03:18:15.225Z,6.50
2018-03-11T03:23:13.639Z,6.07
2018-03-11T03:28:11.178Z,6.18
2018-03-11T03:33:08.880Z,5.65
2018-03-11T03:35:38.171Z,5.40
2018-03-11T03:40:36.231Z,5.40
2018-03-11T03:45:33.903Z,5.90
2018-03-11T03:50:31.900Z,5.43
2018-03-11T03:53:01.872Z,5.40
2018-03-11T03:57:59.886Z,5.00
2018-03-11T04:02:58.027Z,4.80
2018-03-11T04:10:40.251Z,10.60
2018-03-11T04:19:37.899Z,8.18
2018-03-11T04:28:31.641Z,7.27
2018-03-11T04:38:04.420Z,7.03
2018-03-11T04:43:02.405Z,7.28
2018-03-11T04:50:29.224Z,5.87
2018-03-11T04:55:27.343Z,6.30
2018-03-11T05:00:25.351Z,6.43
2018-03-11T05:15:59.748Z,9.95
2018-03-11T05:20:57.350Z,8.48
2018-03-11T05:25:55.446Z,8.75
2018-03-11T05:30:52.874Z,8.68
2018-03-11T05:35:51.182Z,8.20
2018-03-11T05:38:21.197Z,8.95
2018-03-11T05:43:18.796Z,7.70
2018-03-11T05:48:16.755Z,9.23
2018-03-11T05:53:00.815Z,9.33
2018-03-11T05:55:30.181Z,9.00
2018-03-11T06:00:28.192Z,9.13
2018-03-11T06:05:25.902Z,8.90
2018-03-11T06:14:40.720Z,8.75
2018-03-11T06:21:56.895Z,8.13
2018-03-11T06:26:06.175Z,6.97
2018-03-11T06:31:03.888Z,7.57
2018-03-11T06:36:01.875Z,7.57
2018-03-11T06:41:28.745Z,7.35
2018-03-11T06:44:49.329Z,7.68
2018-03-11T06:49:47.337Z,7.20
2018-03-11T06:57:42.763Z,7.40
2018-03-11T07:02:40.605Z,6.97
2018-03-11T07:11:55.812Z,6.95
2018-03-11T07:14:24.878Z,7.10
2018-03-11T07:16:53.764Z,7.15
2018-03-11T07:19:22.868Z,6.87
2018-03-11T07:29:43.882Z,6.65
2018-03-11T07:34:41.870Z,6.00
2018-03-11T07:38:22.967Z,6.25
2018-03-11T07:43:20.901Z,6.30
2018-03-11T07:48:18.760Z,6.20
2018-03-11T07:55:44.758Z,6.03
2018-03-11T08:00:43.752Z,5.55
2018-03-11T08:06:11.183Z,5.70
2018-03-11T08:08:41.192Z,6.00
2018-03-11T08:11:10.718Z,5.83
2018-03-11T08:13:39.871Z,5.32
2018-03-11T08:18:29.543Z,6.18
2018-03-11T08:23:27.764Z,5.63
2018-03-11T08:28:25.792Z,5.57
2018-03-11T08:32:50.868Z,9.02
2018-03-11T08:37:48.664Z,11.80
2018-03-11T08:40:17.849Z,12.32
2018-03-11T08:45:15.867Z,15.32
2018-03-11T08:50:14.374Z,12.90
2018-03-11T08:55:11.896Z,11.85
2018-03-11T09:00:09.801Z,14.55
2018-03-11T09:02:38.871Z,15.90
2018-03-11T09:08:27.804Z,35.77
2018-03-11T09:13:25.879Z,27.85
2018-03-11T09:15:55.425Z,26.20
2018-03-11T09:20:53.409Z,23.00
2018-03-11T09:25:50.916Z,21.08
2018-03-11T09:30:48.904Z,19.85
2018-03-11T09:35:46.888Z,19.30
2018-03-11T09:40:44.892Z,23.90
2018-03-11T09:43:14.387Z,24.47
2018-03-11T09:48:12.563Z,22.60
2018-03-11T09:53:10.894Z,20.88
2018-03-11T09:58:08.875Z,18.95
2018-03-11T10:07:56.574Z,16.20
2018-03-11T10:10:25.883Z,15.55
2018-03-11T10:15:23.663Z,15.07
2018-03-11T10:24:38.900Z,13.93
2018-03-11T10:29:37.197Z,13.97
2018-03-11T10:34:35.243Z,13.52
2018-03-11T10:39:33.340Z,12.30
2018-03-11T10:42:02.769Z,11.38
2018-03-11T10:47:00.902Z,10.77
2018-03-11T10:51:59.176Z,10.90
2018-03-11T10:56:57.204Z,10.48
2018-03-11T11:05:04.907Z,9.73
2018-03-11T11:13:10.652Z,8.70
2018-03-11T11:18:08.169Z,8.20
2018-03-11T11:23:06.175Z,8.25
2018-03-11T11:27:08.444Z,8.55
2018-03-11T11:32:06.244Z,7.53
2018-03-11T11:39:46.348Z,7.47
2018-03-11T11:44:44.224Z,6.93
2018-03-11T11:49:43.201Z,7.65
2018-03-11T11:54:41.752Z,7.03
2018-03-11T11:59:39.802Z,6.70
2018-03-11T12:02:49.751Z,6.95
2018-03-11T12:07:47.802Z,6.97
2018-03-11T12:12:46.173Z,6.50
2018-03-11T12:17:43.772Z,6.03
2018-03-11T12:25:57.906Z,5.55
2018-03-11T12:30:55.899Z,5.90
2018-03-11T12:38:23.903Z,5.97
2018-03-11T12:43:21.892Z,5.37
2018-03-11T12:48:19.890Z,5.47
2018-03-11T12:53:18.486Z,6.70
2018-03-11T12:58:15.704Z,8.00
2018-03-11T13:00:44.755Z,8.77
2018-03-11T13:05:42.799Z,9.73
2018-03-11T13:10:40.718Z,9.27
2018-03-11T13:15:38.747Z,15.50
2018-03-11T13:18:07.695Z,15.77
2018-03-11T13:23:45.686Z,13.30
2018-03-11T13:28:50.430Z,14.30
2018-03-11T13:33:59.511Z,13.20
2018-03-11T13:36:28.587Z,12.70
2018-03-11T13:41:31.746Z,12.17
2018-03-11T13:47:11.722Z,11.75
2018-03-11T13:49:40.877Z,11.57
2018-03-11T13:54:44.771Z,11.30
2018-03-11T14:00:19.189Z,13.90
2018-03-11T14:02:48.622Z,14.55
2018-03-11T14:07:45.896Z,13.40
2018-03-11T14:12:43.892Z,12.00
2018-03-11T14:17:41.907Z,12.23
2018-03-11T14:25:08.061Z,10.82
2018-03-11T14:30:05.883Z,11.03
2018-03-11T14:35:03.922Z,12.02
2018-03-11T14:39:22.241Z,11.45
2018-03-11T14:44:20.428Z,10.82
2018-03-11T14:46:49.885Z,10.27
2018-03-11T14:51:48.254Z,10.80
2018-03-11T15:01:58.436Z,10.38
2018-03-11T15:09:25.204Z,12.80
2018-03-11T15:14:08.926Z,12.37
2018-03-11T15:19:07.243Z,11.12
2018-03-11T15:24:25.909Z,10.50
2018-03-11T15:31:53.675Z,10.30
2018-03-11T15:36:51.607Z,9.55
2018-03-11T15:42:28.402Z,9.65
2018-03-11T15:44:57.774Z,9.60
2018-03-11T15:49:55.196Z,9.18
2018-03-11T15:59:23.072Z,8.68
2018-03-11T16:04:31.188Z,8.00
2018-03-11T16:07:00.900Z,8.20
2018-03-11T16:16:00.771Z,8.45
2018-03-11T16:20:59.400Z,7.85
2018-03-11T16:25:57.791Z,8.35
2018-03-11T16:30:55.534Z,8.43
2018-03-11T16:33:24.917Z,8.20
2018-03-11T16:38:22.895Z,8.20
2018-03-11T16:43:21.188Z,18.35
2018-03-11T16:50:47.556Z,16.48
2018-03-11T16:55:45.326Z,13.60
2018-03-11T17:00:49.195Z,12.37
2018-03-11T17:03:18.872Z,12.37
2018-03-11T17:08:18.597Z,10.55
2018-03-11T17:13:16.253Z,10.20
2018-03-11T17:18:15.170Z,10.47
2018-03-11T17:20:44.766Z,9.50
2018-03-11T17:25:42.771Z,9.57
2018-03-11T17:30:40.648Z,9.07
2018-03-11T17:35:38.649Z,8.98
2018-03-11T17:43:04.877Z,9.05
2018-03-11T17:53:00.886Z,16.75
2018-03-11T17:57:59.240Z,12.32
2018-03-11T18:02:57.141Z,11.02
2018-03-11T18:07:54.863Z,11.45
2018-03-11T18:10:23.882Z,11.43
2018-03-11T18:15:22.573Z,10.20
2018-03-11T18:19:23.222Z,10.55
2018-03-11T18:24:39.647Z,9.82
2018-03-11T18:30:20.892Z,9.82
2018-03-11T18:32:49.874Z,9.00
2018-03-11T18:37:47.916Z,8.68
2018-03-11T18:42:46.182Z,10.17
2018-03-11T18:47:44.321Z,10.75
2018-03-11T18:52:41.907Z,11.52
2018-03-11T18:55:11.065Z,10.50
2018-03-11T19:00:09.236Z,9.70
2018-03-11T19:13:18.944Z,8.48
2018-03-11T19:18:16.966Z,9.00
2018-03-11T19:23:14.863Z,9.02
2018-03-11T19:30:41.789Z,11.07
2018-03-11T19:35:39.884Z,10.82
2018-03-11T19:40:37.893Z,9.53
2018-03-11T19:45:36.309Z,9.45
2018-03-11T19:48:05.768Z,8.75
2018-03-11T19:53:04.904Z,8.80
2018-03-11T19:58:04.182Z,8.33
2018-03-11T20:03:02.352Z,7.50
2018-03-11T20:05:31.784Z,8.13
2018-03-11T20:10:29.314Z,7.72
2018-03-11T20:15:28.891Z,8.15
2018-03-11T20:20:26.691Z,7.72
2018-03-11T20:22:56.315Z,7.97
2018-03-11T20:27:54.206Z,7.72
2018-03-11T20:32:52.299Z,7.45
2018-03-11T20:37:50.680Z,7.43
2018-03-11T20:42:48.072Z,7.50
2018-03-11T20:45:17.889Z,7.28
2018-03-11T20:50:15.641Z,7.55
2018-03-11T20:55:13.720Z,7.35
2018-03-11T21:04:41.629Z,7.40
2018-03-11T21:07:10.674Z,7.33
2018-03-11T21:09:39.627Z,7.10
2018-03-11T21:12:08.639Z,7.15
2018-03-11T21:17:05.664Z,7.33
2018-03-11T21:20:15.590Z,7.10
2018-03-11T21:25:13.343Z,8.77
2018-03-11T21:30:11.119Z,10.60
2018-03-11T21:37:54.230Z,11.25
2018-03-11T21:42:52.610Z,10.30
2018-03-11T21:47:50.777Z,9.50
2018-03-11T21:52:48.322Z,9.50
2018-03-11T21:57:16.715Z,9.33
2018-03-11T21:59:45.904Z,9.00
2018-03-11T22:04:43.888Z,8.80
2018-03-11T22:09:42.161Z,8.57
2018-03-11T22:16:54.637Z,8.30
2018-03-11T22:21:58.680Z,8.68
2018-03-11T22:26:57.299Z,8.48
2018-03-11T22:31:55.791Z,8.70
2018-03-11T22:34:24.911Z,7.93
2018-03-11T22:39:22.899Z,8.23
2018-03-11T22:44:21.308Z,8.43
2018-03-11T22:49:19.001Z,7.43
2018-03-11T22:51:48.500Z,7.70
2018-03-11T22:56:46.317Z,7.50
2018-03-11T23:01:44.188Z,7.22
2018-03-11T23:06:41.712Z,7.55
2018-03-11T23:11:39.547Z,7.87
2018-03-11T23:14:08.793Z,7.65
2018-03-11T23:19:18.152Z,7.12
2018-03-11T23:24:15.803Z,7.68
2018-03-11T23:29:13.448Z,7.00
2018-03-11T23:31:42.893Z,6.30
2018-03-11T23:36:40.912Z,6.80
2018-03-11T23:41:38.881Z,6.37
2018-03-11T23:49:41.879Z,7.10
2018-03-11T23:54:40.191Z,6.40
